Main page
METAR-TAF:

METAR-TAF

Airports :

Diori Hamani International Airport

Niamey, Niger

latitude: 13-29N, longitude: 002-10E, elevation: 223 m

Current weather observation

The report was made 45 minutes ago, at 06:00 UTC
Wind 1 kt from variable directions
Temperature 22°C
Humidity 100%
Pressure 1012 hPa
Visibility 10 km or more
Few clouds at a height of 1600 ft

METAR: DRRN 180600Z VRB01KT 9999 FEW016 22/22 Q1012 NOSIG

Time: 07:45 (06:45 UTC)

Forecast

The report was made 1 hour and 45 minutes ago, at 05:00 UTC
Forecast valid from 18 at 06 UTC to 19 at 12 UTC
Wind 8 kt from the Southwest
Visibility 10 km or more
Few clouds at a height of 1500 ft
Probability 30% :
Temporary
from 18 at 14 UTC to 18 at 20 UTC
Scattered clouds at a height of 2000 ft
Few clouds at a height of 2800 ft, Cumulonimbus.
thunderstorm

TAF: DRRN 180500Z 1806/1912 22008KT 9999 FEW015 PROB30 TEMPO 1814/1820 TS SCT020 FEW028CB

Weather observations and forecasts of more than 4000 airports (METAR and TAF reports).

The available stations are represented by yellow and red dots on the map.

Hover mouse over dot to see the name of the station.

Then click to see weather observations and forecasts.

To change the map : click on the green buttons with a black cross to zoom in, on the green button with a dash to zoom out, or on the green arrows for adjacent maps.


METAR-TAF: